Time;durP1;ratioP1;P1;durP2;ratioP2;P2;SDS_P1;SDS_P2;PMS_P1;PMS_P2;Temp;Humidity;BMP_temperature;BMP_pressure;BME280_temperature;BME280_humidity;BME280_pressure;Samples;Min_cycle;Max_cycle;Signal;HPM_P1;HPM_P2
2021/09/19 00:00:14;;;;;;;;;10.75;9.50;;;;;25.10;50.99;100316.00;6161991;23;45652;-91
2021/09/19 00:02:40;;;;;;;;;10.50;10.50;;;;;24.97;51.17;100293.59;6161890;23;45246;-92
2021/09/19 00:05:06;;;;;;;;;10.50;9.00;;;;;25.06;51.13;100312.66;6161655;23;45542;-91
2021/09/19 00:07:32;;;;;;;;;10.75;10.00;;;;;25.05;51.75;100307.41;6161343;23;47013;-91
2021/09/19 00:09:57;;;;;;;;;11.50;11.50;;;;;25.08;51.24;100309.88;6161366;23;45246;-92
2021/09/19 00:12:23;;;;;;;;;12.00;11.00;;;;;25.04;51.14;100295.00;6162476;23;45303;-91
2021/09/19 00:14:48;;;;;;;;;11.50;10.50;;;;;25.01;51.31;100279.97;6162665;23;45289;-90
2021/09/19 00:17:14;;;;;;;;;9.25;8.75;;;;;25.00;50.90;100282.72;6162921;23;47095;-91
2021/09/19 00:19:39;;;;;;;;;11.00;11.00;;;;;24.99;51.06;100279.19;6162720;23;45275;-89
2021/09/19 00:22:07;;;;;;;;;11.00;10.00;;;;;25.02;51.58;100289.75;6162518;23;45273;-91
2021/09/19 00:24:32;;;;;;;;;9.00;8.75;;;;;25.00;51.56;100285.41;6163462;23;45333;-91
2021/09/19 00:27:00;;;;;;;;;8.00;8.00;;;;;25.13;50.62;100306.97;6163911;23;46907;-91
2021/09/19 00:29:25;;;;;;;;;10.25;9.50;;;;;25.08;51.17;100296.53;6165479;23;45202;-90
2021/09/19 00:31:51;;;;;;;;;11.75;11.25;;;;;24.99;51.42;100275.66;6165922;23;45310;-90
2021/09/19 00:34:16;;;;;;;;;12.50;12.50;;;;;24.91;51.35;100264.56;6187289;23;45264;-88
2021/09/19 00:36:42;;;;;;;;;9.25;8.00;;;;;25.02;51.72;100280.81;6161652;23;48467;-89
2021/09/19 00:39:08;;;;;;;;;9.00;9.00;;;;;25.01;51.05;100271.09;6186246;23;48508;-87
2021/09/19 00:41:34;;;;;;;;;9.00;8.00;;;;;24.98;51.07;100264.13;6186597;23;45268;-87
2021/09/19 00:44:04;;;;;;;;;11.50;9.25;;;;;25.00;51.57;100267.56;6160906;23;45352;-89
2021/09/19 00:46:29;;;;;;;;;10.50;8.25;;;;;24.93;51.36;100257.31;6160896;23;46892;-89
2021/09/19 00:48:54;;;;;;;;;7.25;7.25;;;;;24.92;51.37;100260.94;6160917;23;45131;-89
2021/09/19 00:51:20;;;;;;;;;8.00;8.00;;;;;25.03;51.00;100280.78;6161059;23;45241;-83
2021/09/19 00:53:45;;;;;;;;;7.00;7.00;;;;;25.11;51.73;100285.69;6185113;23;57851;-84
2021/09/19 00:56:11;;;;;;;;;9.25;8.25;;;;;25.16;51.91;100280.06;6160736;23;48239;-88
2021/09/19 00:58:37;;;;;;;;;8.00;7.25;;;;;25.12;51.88;100278.53;6160377;23;45447;-88
2021/09/19 01:01:03;;;;;;;;;8.25;7.75;;;;;25.12;51.56;100267.84;6161004;23;45453;-88
2021/09/19 01:03:28;;;;;;;;;9.00;8.50;;;;;25.03;51.52;100263.91;6160980;23;45285;-88
2021/09/19 01:05:54;;;;;;;;;9.00;9.00;;;;;25.01;51.59;100263.94;6160877;23;47042;-87
2021/09/19 01:08:20;;;;;;;;;8.00;7.25;;;;;25.02;51.39;100270.13;6160875;23;45254;-87
2021/09/19 01:10:46;;;;;;;;;8.75;8.75;;;;;25.01;51.55;100271.09;6186334;23;45287;-86
2021/09/19 01:13:11;;;;;;;;;9.75;9.00;;;;;24.95;51.52;100258.97;6160714;23;45616;-86
2021/09/19 01:15:37;;;;;;;;;8.50;8.25;;;;;24.96;51.55;100263.38;6186434;23;45417;-86
2021/09/19 01:18:03;;;;;;;;;10.00;9.00;;;;;24.99;51.61;100278.34;6160753;23;45207;-86
2021/09/19 01:20:29;;;;;;;;;8.00;7.75;;;;;24.78;51.36;100245.75;6161062;23;45191;-86
2021/09/19 01:23:10;;;;;;;;;8.50;8.25;;;;;24.99;51.61;100281.00;6160488;23;45159;-86
2021/09/19 01:25:36;;;;;;;;;9.00;8.00;;;;;24.80;51.41;100249.19;6185511;23;47125;-87
2021/09/19 01:28:03;;;;;;;;;8.25;7.00;;;;;24.75;51.65;100244.09;6160576;23;45285;-87
2021/09/19 01:30:28;;;;;;;;;9.00;8.00;;;;;24.87;51.73;100265.72;6160888;23;45119;-86
2021/09/19 01:32:53;;;;;;;;;11.00;9.50;;;;;24.80;51.47;100258.06;6160435;23;45321;-85
2021/09/19 01:35:19;;;;;;;;;8.50;8.00;;;;;24.81;51.70;100258.91;6186249;23;45164;-87
2021/09/19 01:37:44;;;;;;;;;7.25;7.25;;;;;24.81;51.53;100253.56;6186088;23;45205;-86
2021/09/19 01:40:10;;;;;;;;;10.00;10.00;;;;;24.87;51.62;100263.03;6160932;23;45183;-86
2021/09/19 01:42:36;;;;;;;;;9.00;8.50;;;;;24.81;51.33;100254.44;6160303;23;45504;-85
2021/09/19 01:45:01;;;;;;;;;8.75;7.50;;;;;24.85;51.58;100271.16;6160577;23;47175;-86
2021/09/19 01:47:27;;;;;;;;;8.25;8.25;;;;;24.84;51.51;100268.53;6185368;23;45716;-85
2021/09/19 01:49:52;;;;;;;;;9.50;8.00;;;;;24.80;51.37;100263.38;6185612;23;53980;-84
2021/09/19 01:52:18;;;;;;;;;11.25;9.00;;;;;24.78;51.51;100256.44;6160163;23;45385;-85
2021/09/19 01:54:44;;;;;;;;;8.50;8.50;;;;;24.88;51.27;100278.09;6186001;23;45456;-85
2021/09/19 01:57:09;;;;;;;;;11.25;8.50;;;;;24.77;51.56;100260.03;6159764;23;52929;-85
2021/09/19 01:59:35;;;;;;;;;9.50;8.00;;;;;24.75;51.64;100259.25;6160743;23;45273;-84
2021/09/19 02:02:00;;;;;;;;;8.25;8.25;;;;;24.70;51.68;100251.53;6185420;23;45162;-84
2021/09/19 02:04:26;;;;;;;;;8.25;8.00;;;;;24.69;51.39;100254.28;6160351;23;50429;-86
2021/09/19 02:06:51;;;;;;;;;9.50;7.75;;;;;24.67;51.79;100251.72;6185673;23;51966;-86
2021/09/19 02:09:16;;;;;;;;;10.50;10.50;;;;;24.79;51.71;100267.00;6160782;23;45267;-85
2021/09/19 02:11:42;;;;;;;;;6.75;6.75;;;;;24.70;51.95;100250.66;6185437;23;45814;-85
2021/09/19 02:14:07;;;;;;;;;10.00;9.00;;;;;24.73;51.99;100250.47;6185998;23;46195;-85
2021/09/19 02:16:33;;;;;;;;;10.00;9.00;;;;;24.80;51.89;100262.53;6185818;23;49356;-86
2021/09/19 02:18:58;;;;;;;;;9.00;8.25;;;;;24.69;51.75;100239.13;6160553;23;45127;-86
2021/09/19 02:21:27;;;;;;;;;10.00;9.50;;;;;24.72;51.76;100260.28;6185411;23;52724;-85
2021/09/19 02:23:52;;;;;;;;;11.00;10.00;;;;;24.74;52.07;100260.19;6160762;23;45603;-84
2021/09/19 02:26:17;;;;;;;;;11.75;11.00;;;;;24.72;52.51;100254.97;6210569;22;54718;-85
2021/09/19 02:28:43;;;;;;;;;10.25;9.75;;;;;24.70;52.18;100246.19;6160439;23;45837;-85
2021/09/19 02:31:08;;;;;;;;;8.00;7.75;;;;;24.62;52.44;100236.91;6185686;23;45496;-84
2021/09/19 02:33:34;;;;;;;;;11.00;11.00;;;;;24.64;52.48;100235.84;6159445;23;55371;-83
2021/09/19 02:35:59;;;;;;;;;9.00;8.50;;;;;24.60;52.38;100226.31;6159463;23;46151;-84
2021/09/19 02:38:25;;;;;;;;;9.25;9.25;;;;;24.71;52.19;100241.72;6185492;23;45319;-84
2021/09/19 02:40:53;;;;;;;;;9.75;9.75;;;;;24.77;52.29;100244.88;6160078;23;45349;-84
2021/09/19 02:43:20;;;;;;;;;11.50;10.00;;;;;24.69;52.17;100236.47;6160607;23;48064;-84
2021/09/19 02:45:45;;;;;;;;;9.00;9.00;;;;;24.67;52.77;100241.03;6185977;23;45182;-84
2021/09/19 02:48:11;;;;;;;;;9.50;9.50;;;;;24.70;52.60;100240.00;6185904;23;45283;-84
2021/09/19 02:50:36;;;;;;;;;10.25;9.25;;;;;24.62;53.08;100227.09;6160255;23;45413;-84
2021/09/19 02:53:02;;;;;;;;;10.00;9.00;;;;;24.60;53.00;100220.97;6185585;23;45906;-84
2021/09/19 02:55:27;;;;;;;;;8.25;8.25;;;;;24.63;52.43;100223.47;6185179;23;45356;-84
2021/09/19 02:57:52;;;;;;;;;11.00;9.25;;;;;24.68;52.27;100224.06;6185254;23;47873;-84
2021/09/19 03:00:19;;;;;;;;;9.25;9.25;;;;;24.70;52.80;100218.63;6159550;23;58466;-84
2021/09/19 03:02:44;;;;;;;;;11.00;11.00;;;;;24.58;52.41;100197.97;6185166;23;45401;-84
2021/09/19 03:05:10;;;;;;;;;8.00;8.00;;;;;24.64;52.27;100217.16;6160058;23;48904;-84
2021/09/19 03:07:35;;;;;;;;;12.50;9.75;;;;;24.64;52.49;100219.84;6185806;23;45412;-85
2021/09/19 03:10:01;;;;;;;;;10.00;9.00;;;;;24.64;52.42;100217.16;6185789;23;45383;-84
2021/09/19 03:12:26;;;;;;;;;10.50;10.25;;;;;24.61;52.08;100213.84;6159727;23;47979;-84
2021/09/19 03:14:52;;;;;;;;;11.00;10.00;;;;;24.67;52.84;100218.78;6210025;22;61811;-83
2021/09/19 03:17:17;;;;;;;;;9.25;9.25;;;;;24.53;52.92;100201.78;6185428;23;47625;-84
2021/09/19 03:19:43;;;;;;;;;9.75;9.75;;;;;24.61;52.72;100213.84;6210748;22;47663;-84
2021/09/19 03:22:08;;;;;;;;;10.50;9.75;;;;;24.59;52.81;100197.91;6185553;23;45231;-84
2021/09/19 03:24:33;;;;;;;;;11.00;11.00;;;;;24.56;52.23;100199.88;6159678;23;51331;-84
2021/09/19 03:26:59;;;;;;;;;10.50;10.50;;;;;24.50;52.46;100190.44;6160030;23;45285;-84
2021/09/19 03:29:26;;;;;;;;;12.00;10.75;;;;;24.52;52.95;100196.53;6185164;23;55918;-84
2021/09/19 03:31:52;;;;;;;;;10.00;9.00;;;;;24.47;52.83;100194.13;6160448;23;47111;-84
2021/09/19 03:34:17;;;;;;;;;11.25;10.00;;;;;24.55;52.74;100206.16;6159797;23;45782;-84
2021/09/19 03:36:44;;;;;;;;;11.25;10.25;;;;;24.56;52.94;100205.22;6160393;23;45299;-84
2021/09/19 03:39:09;;;;;;;;;14.75;12.00;;;;;24.51;52.97;100201.03;6185005;23;56396;-84
2021/09/19 03:41:34;;;;;;;;;9.00;8.25;;;;;24.44;53.35;100196.13;6185023;23;46131;-85
2021/09/19 03:44:00;;;;;;;;;12.50;10.75;;;;;24.49;52.80;100202.03;6185308;23;48830;-85
2021/09/19 03:46:26;;;;;;;;;10.50;10.50;;;;;24.52;52.66;100205.41;6160275;23;45542;-84
2021/09/19 03:48:51;;;;;;;;;12.50;10.00;;;;;24.53;53.48;100211.59;6185600;23;45203;-84
2021/09/19 03:51:17;;;;;;;;;10.75;9.75;;;;;24.45;53.09;100203.16;6185386;23;45736;-84
2021/09/19 03:53:42;;;;;;;;;12.75;12.00;;;;;24.40;52.84;100199.88;6159458;23;45720;-84
2021/09/19 03:56:08;;;;;;;;;12.75;12.75;;;;;24.40;52.96;100200.75;6185626;23;45690;-84
2021/09/19 03:58:33;;;;;;;;;10.50;10.50;;;;;24.48;53.16;100227.84;6184298;23;48615;-84
2021/09/19 04:00:58;;;;;;;;;13.25;11.00;;;;;24.47;53.62;100227.94;6159401;23;48025;-84
2021/09/19 04:03:24;;;;;;;;;13.25;12.75;;;;;24.40;53.33;100214.09;6184761;23;49050;-84
2021/09/19 04:05:49;;;;;;;;;10.75;10.75;;;;;24.39;53.10;100214.19;6160139;23;45181;-85
2021/09/19 04:08:14;;;;;;;;;12.00;11.00;;;;;24.43;53.35;100207.75;6158932;23;56477;-84
2021/09/19 04:10:40;;;;;;;;;14.00;12.25;;;;;24.41;53.05;100201.59;6210186;22;51242;-84
2021/09/19 04:13:05;;;;;;;;;9.00;8.25;;;;;24.45;52.71;100197.84;6184599;23;45102;-84
2021/09/19 04:15:31;;;;;;;;;12.25;11.00;;;;;24.43;53.48;100197.94;6184361;23;54036;-84
2021/09/19 04:17:56;;;;;;;;;10.25;10.25;;;;;24.43;52.56;100194.41;6159158;23;45191;-84
2021/09/19 04:20:21;;;;;;;;;11.75;10.00;;;;;24.45;53.20;100209.38;6159440;23;47147;-84
2021/09/19 04:22:47;;;;;;;;;11.75;11.75;;;;;24.53;52.59;100225.78;6184185;23;47833;-84
2021/09/19 04:25:13;;;;;;;;;10.25;9.00;;;;;24.44;52.99;100220.13;6185067;23;45392;-84
2021/09/19 04:27:38;;;;;;;;;11.25;11.00;;;;;24.43;53.31;100205.06;6158810;23;48935;-84
2021/09/19 04:30:04;;;;;;;;;8.75;8.75;;;;;24.54;52.88;100224.00;6184322;23;47592;-84
2021/09/19 04:32:30;;;;;;;;;9.75;9.75;;;;;24.48;53.03;100224.31;6183976;23;45281;-84
2021/09/19 04:34:55;;;;;;;;;11.50;10.75;;;;;24.49;52.81;100223.38;6184052;23;53888;-84
2021/09/19 04:37:20;;;;;;;;;11.25;11.00;;;;;24.60;52.89;100239.66;6158550;23;57385;-84
2021/09/19 04:39:46;;;;;;;;;13.00;10.50;;;;;24.60;52.98;100234.31;6159297;23;47857;-84
2021/09/19 04:42:13;;;;;;;;;11.75;11.50;;;;;24.60;52.33;100241.47;6183851;23;45335;-84
2021/09/19 04:44:38;;;;;;;;;14.75;13.00;;;;;24.63;52.13;100251.97;6184561;23;45244;-84
2021/09/19 04:47:04;;;;;;;;;9.00;9.00;;;;;24.51;52.42;100229.50;6184821;23;45191;-84
2021/09/19 04:49:29;;;;;;;;;12.00;12.00;;;;;24.52;51.96;100234.75;6159291;23;46983;-84
2021/09/19 04:51:54;;;;;;;;;11.25;11.25;;;;;24.52;52.69;100236.56;6184214;23;45799;-84
2021/09/19 04:54:20;;;;;;;;;13.50;11.50;;;;;24.55;51.66;100243.53;6184355;23;49282;-84
2021/09/19 04:56:45;;;;;;;;;11.00;10.00;;;;;24.52;51.82;100240.09;6158954;23;49432;-84
2021/09/19 04:59:11;;;;;;;;;12.00;11.25;;;;;24.46;52.07;100232.41;6185571;23;54857;-84
2021/09/19 05:01:36;;;;;;;;;10.50;10.50;;;;;24.56;52.27;100248.75;6160460;23;45163;-84
2021/09/19 05:04:02;;;;;;;;;10.25;10.25;;;;;24.48;51.93;100235.84;6185720;23;45680;-84
2021/09/19 05:06:27;;;;;;;;;11.25;10.75;;;;;24.47;51.48;100233.28;6186429;23;45294;-85
2021/09/19 05:08:52;;;;;;;;;12.25;12.25;;;;;24.49;51.12;100237.56;6186105;23;47412;-83
2021/09/19 05:11:18;;;;;;;;;15.25;11.50;;;;;24.49;52.40;100237.56;6211372;22;46856;-83
2021/09/19 05:13:43;;;;;;;;;12.00;10.75;;;;;24.47;51.55;100233.28;6159609;23;60884;-83
2021/09/19 05:16:08;;;;;;;;;12.00;10.75;;;;;24.40;51.21;100229.22;6160295;23;45374;-83
2021/09/19 05:18:34;;;;;;;;;11.50;11.00;;;;;24.50;51.54;100241.13;6159545;23;59326;-83
2021/09/19 05:21:00;;;;;;;;;11.00;11.00;;;;;24.55;51.96;100247.03;6160311;23;45354;-74
2021/09/19 05:23:26;;;;;;;;;9.25;9.25;;;;;24.47;52.35;100227.94;6160569;23;45249;-76
2021/09/19 05:25:52;;;;;;;;;8.50;8.00;;;;;24.63;51.99;100250.16;6211193;22;45231;-77
2021/09/19 05:28:17;;;;;;;;;14.25;13.50;;;;;24.58;51.21;100238.00;6185100;23;46007;-77
2021/09/19 05:30:42;;;;;;;;;12.00;11.00;;;;;24.59;51.55;100227.25;6187348;22;45148;-77
2021/09/19 05:33:08;;;;;;;;;11.00;11.00;;;;;24.61;50.77;100236.03;6186842;23;51654;-77
2021/09/19 05:35:33;;;;;;;;;10.25;10.25;;;;;24.68;50.93;100248.09;6160634;23;45448;-77
2021/09/19 05:37:59;;;;;;;;;10.75;10.00;;;;;24.74;50.59;100257.53;6187185;23;45181;-77
2021/09/19 05:40:24;;;;;;;;;13.50;11.25;;;;;24.74;50.04;100261.06;6185181;23;45181;-77
2021/09/19 05:42:49;;;;;;;;;11.75;11.75;;;;;24.76;49.83;100258.31;6187419;23;45383;-77
2021/09/19 05:45:15;;;;;;;;;11.50;10.50;;;;;24.61;49.77;100229.84;6185406;23;45270;-77
2021/09/19 05:47:41;;;;;;;;;13.75;12.75;;;;;24.79;49.79;100256.34;6187205;22;45164;-77
2021/09/19 05:50:15;;;;;;;;;10.25;10.25;;;;;24.74;49.03;100255.72;6211175;22;45204;-77
2021/09/19 05:52:40;;;;;;;;;11.50;11.25;;;;;24.70;48.89;100256.00;6211700;22;45287;-75
2021/09/19 05:55:06;;;;;;;;;13.75;12.25;;;;;24.80;49.42;100273.22;6185949;23;45194;-79
2021/09/19 05:57:32;;;;;;;;;13.00;12.00;;;;;24.65;48.75;100260.72;6187026;23;45432;-80
2021/09/19 05:59:59;;;;;;;;;15.75;14.00;;;;;24.63;49.27;100255.47;6187357;23;45371;-74
2021/09/19 06:02:27;;;;;;;;;11.50;11.50;;;;;24.64;49.28;100257.19;6210417;22;45206;-77
2021/09/19 06:04:53;;;;;;;;;13.25;13.00;;;;;24.88;50.06;100281.63;6160894;23;45819;-75
2021/09/19 06:07:18;;;;;;;;;13.50;12.75;;;;;24.88;49.78;100264.75;6185159;23;45994;-77
2021/09/19 06:09:44;;;;;;;;;11.00;11.00;;;;;24.98;48.63;100273.97;6186796;23;57643;-73
2021/09/19 06:12:09;;;;;;;;;14.50;13.00;;;;;25.18;48.42;100299.53;6211121;22;45172;-75
2021/09/19 06:14:35;;;;;;;;;15.25;12.75;;;;;25.23;48.10;100286.78;6185885;23;45167;-74
2021/09/19 06:17:00;;;;;;;;;15.75;14.25;;;;;25.23;47.91;100281.44;6184898;23;46129;-75
2021/09/19 06:19:26;;;;;;;;;14.00;12.50;;;;;25.12;47.76;100260.72;6187415;22;45163;-75
2021/09/19 06:21:51;;;;;;;;;13.50;12.00;;;;;25.35;48.01;100289.56;6160261;23;45339;-77
2021/09/19 06:24:17;;;;;;;;;14.75;12.00;;;;;25.38;48.13;100280.53;6160311;23;45845;-74
2021/09/19 06:26:42;;;;;;;;;14.00;12.75;;;;;25.42;46.89;100287.41;6159884;23;46999;-74
2021/09/19 06:29:07;;;;;;;;;13.00;13.00;;;;;25.28;46.94;100279.34;6185415;23;45310;-75
2021/09/19 06:31:33;;;;;;;;;14.50;12.00;;;;;25.17;45.92;100277.31;6186892;22;55735;-75
2021/09/19 06:33:58;;;;;;;;;12.50;12.00;;;;;25.19;46.17;100296.75;6185323;23;45260;-73
2021/09/19 06:36:24;;;;;;;;;13.50;13.50;;;;;25.14;46.06;100289.97;6185692;23;45372;-75
2021/09/19 06:38:49;;;;;;;;;16.25;14.00;;;;;25.11;46.48;100293.72;6185694;23;45348;-78
2021/09/19 06:41:15;;;;;;;;;13.25;12.00;;;;;25.01;46.35;100277.28;6184704;23;45381;-78
2021/09/19 06:43:40;;;;;;;;;13.00;11.75;;;;;24.98;46.80;100272.16;6160306;23;45294;-78
2021/09/19 06:46:05;;;;;;;;;11.50;10.75;;;;;24.95;46.52;100261.66;6210602;22;46348;-78
2021/09/19 06:48:33;;;;;;;;;12.00;12.00;;;;;25.04;47.16;100271.84;6185062;23;45711;-77
2021/09/19 06:50:59;;;;;;;;;14.50;14.50;;;;;25.10;46.58;100281.28;6210568;22;45190;-77
2021/09/19 06:53:27;;;;;;;;;14.25;12.00;;;;;25.07;46.57;100276.13;6187053;22;45162;-78
2021/09/19 06:55:52;;;;;;;;;12.00;11.50;;;;;25.18;47.10;100295.03;6209880;22;45303;-78
2021/09/19 06:58:21;;;;;;;;;14.25;12.75;;;;;25.09;47.67;100274.22;6159595;23;45332;-80
2021/09/19 07:00:46;;;;;;;;;11.25;11.25;;;;;25.30;46.91;100298.81;6189657;22;45234;-79
2021/09/19 07:03:11;;;;;;;;;10.00;10.00;;;;;25.28;47.28;100296.25;6217327;22;45273;-75
2021/09/19 07:05:37;;;;;;;;;14.50;14.00;;;;;25.29;47.16;100303.31;6215360;22;45225;-75
2021/09/19 07:08:03;;;;;;;;;14.00;11.25;;;;;25.24;46.80;100301.84;6216005;22;45241;-73
2021/09/19 07:10:37;;;;;;;;;11.25;9.75;;;;;25.30;47.02;100314.84;6217153;22;45167;-80
2021/09/19 07:13:03;;;;;;;;;12.00;12.00;;;;;25.30;47.35;100304.16;6216261;22;45286;-81
2021/09/19 07:15:28;;;;;;;;;15.50;13.25;;;;;25.22;47.32;100299.28;6190306;22;45475;-81
2021/09/19 07:17:53;;;;;;;;;13.25;12.25;;;;;25.34;47.34;100308.38;6190433;22;45217;-75
2021/09/19 07:20:19;;;;;;;;;16.75;12.50;;;;;25.38;47.49;100306.41;6217080;22;45108;-77
2021/09/19 07:22:46;;;;;;;;;16.00;14.00;;;;;25.38;47.58;100309.91;6214723;22;63511;-76
2021/09/19 07:25:12;;;;;;;;;13.75;12.00;;;;;25.37;46.48;100310.88;6190805;22;45185;-77
2021/09/19 07:27:37;;;;;;;;;13.50;12.25;;;;;25.48;47.18;100334.28;6216863;22;45385;-74
2021/09/19 07:30:03;;;;;;;;;18.75;15.00;;;;;25.48;47.02;100340.47;6164635;22;45367;-76
2021/09/19 07:32:31;;;;;;;;;13.25;13.25;;;;;25.42;46.30;100323.94;6189717;22;45664;-74
2021/09/19 07:34:57;;;;;;;;;13.75;11.00;;;;;25.35;46.27;100326.97;6190795;22;45896;-74
2021/09/19 07:37:22;;;;;;;;;13.50;13.00;;;;;25.27;45.73;100309.66;6217116;22;45211;-75
2021/09/19 07:39:48;;;;;;;;;13.50;13.50;;;;;25.21;45.25;100310.06;6217097;22;45120;-78
2021/09/19 07:42:19;;;;;;;;;14.25;14.25;;;;;25.37;45.66;100350.94;6216772;22;45158;-74
2021/09/19 07:44:44;;;;;;;;;17.25;16.25;;;;;25.25;46.42;100336.47;6190021;22;45944;-74
2021/09/19 07:47:10;;;;;;;;;15.75;14.75;;;;;25.28;46.35;100347.00;6218662;22;45202;-76
2021/09/19 07:49:36;;;;;;;;;17.75;16.50;;;;;25.19;46.22;100338.63;6217503;22;45335;-80
2021/09/19 07:52:04;;;;;;;;;20.50;20.00;;;;;25.26;46.68;100348.88;6165530;22;45534;-76
2021/09/19 07:54:42;;;;;;;;;;;;;;;;;;;;;
2021/09/19 07:57:08;;;;;;;;;20.00;18.75;;;;;25.38;46.26;100360.69;6214762;22;71895;-76
2021/09/19 07:59:33;;;;;;;;;19.50;17.50;;;;;25.26;46.21;100345.34;6190268;22;45374;-76
2021/09/19 08:02:01;;;;;;;;;16.75;16.25;;;;;25.36;46.04;100363.41;6216758;22;45487;-76
2021/09/19 08:04:27;;;;;;;;;19.25;16.75;;;;;25.30;45.50;100366.47;6189550;22;47375;-77
2021/09/19 08:06:52;;;;;;;;;14.00;13.25;;;;;25.23;45.63;100362.41;6217607;22;45142;-77
2021/09/19 08:09:18;;;;;;;;;14.50;14.50;;;;;25.23;46.08;100367.75;6215913;22;45889;-75
2021/09/19 08:11:43;;;;;;;;;16.75;15.50;;;;;25.09;45.83;100355.19;6189765;22;45217;-76
2021/09/19 08:17:35;;;;;;;;;21.00;17.75;;;;;25.19;46.52;100365.34;6215306;22;45107;-76
2021/09/19 08:20:00;;;;;;;;;13.75;12.50;;;;;25.17;46.78;100362.75;6189904;22;45811;-77
2021/09/19 08:22:29;;;;;;;;;17.75;15.00;;;;;25.15;46.40;100358.47;6190479;22;45517;-77
2021/09/19 08:24:55;;;;;;;;;20.00;19.00;;;;;25.09;45.67;100351.66;6214027;22;46157;-76
2021/09/19 08:27:20;;;;;;;;;15.25;15.25;;;;;25.21;46.14;100369.66;6185979;22;45629;-78
2021/09/19 08:29:45;;;;;;;;;14.75;13.25;;;;;25.27;46.22;100392.47;6214254;22;45373;-77
2021/09/19 08:32:44;;;;;;;;;;;;;;;;;;;;;
2021/09/19 08:38:45;;;;;;;;;;;;;;;;;;;;;
2021/09/19 08:45:10;;;;;;;;;;;;;;;;;;;;;
2021/09/19 08:49:08;;;;;;;;;;;;;;;;;;;;;
2021/09/19 09:03:10;;;;;;;;;;;;;;;;;;;;;
2021/09/19 09:16:16;;;;;;;;;14.00;14.00;;;;;25.35;46.15;100443.66;6036835;23;45418;-78
2021/09/19 09:18:52;;;;;;;;;13.50;12.25;;;;;25.21;46.41;100433.78;6030973;23;45576;-76
2021/09/19 09:21:48;;;;;;;;;;;;;;;;;;;;;
2021/09/19 09:30:58;;;;;;;;;18.75;17.75;;;;;25.33;46.08;100457.09;6037668;23;45862;-76
2021/09/19 09:33:23;;;;;;;;;15.75;14.75;;;;;25.31;46.05;100451.00;6041883;23;45328;-74
2021/09/19 09:35:48;;;;;;;;;12.25;12.25;;;;;25.33;46.50;100466.94;6106182;23;62356;-79
2021/09/19 09:38:43;;;;;;;;;15.00;14.75;;;;;25.39;47.11;100452.38;6160431;23;49565;-84
2021/09/19 09:44:55;;;;;;;;;15.75;14.75;;;;;25.49;46.60;100458.91;6065052;23;45517;-82
2021/09/19 09:47:42;;;;;;;;;;;;;;;;;;;;;
2021/09/19 09:50:37;;;;;;;;;19.75;18.25;;;;;25.50;46.31;100456.16;6065313;23;76169;-88
2021/09/19 09:54:04;;;;;;;;;;;;;;;;;;;;;
2021/09/19 09:56:38;;;;;;;;;16.25;14.50;;;;;25.31;46.58;100426.09;5986510;23;69456;-82
2021/09/19 09:59:16;;;;;;;;;;;;;;;;;;;;;
2021/09/19 10:01:52;;;;;;;;;;;;;;;;;;;;;
2021/09/19 10:04:18;;;;;;;;;19.00;16.00;;;;;25.58;47.96;100461.91;6141724;23;73070;-79
2021/09/19 10:06:43;;;;;;;;;18.00;17.75;;;;;25.62;46.67;100467.94;6135782;23;45264;-82
2021/09/19 10:09:09;;;;;;;;;13.50;13.50;;;;;25.64;47.15;100464.25;6160600;23;50321;-79
2021/09/19 10:11:43;;;;;;;;;19.75;16.50;;;;;25.67;47.20;100476.56;6135020;23;47750;-79
2021/09/19 10:14:09;;;;;;;;;15.25;15.25;;;;;25.65;46.86;100467.78;6162625;23;45456;-80
2021/09/19 10:16:34;;;;;;;;;14.50;13.75;;;;;25.74;47.34;100479.78;6135610;23;45242;-82
2021/09/19 10:19:02;;;;;;;;;15.75;13.00;;;;;25.64;47.22;100452.69;6186345;23;56803;-78
2021/09/19 10:22:05;;;;;;;;;15.00;15.00;;;;;25.81;47.29;100478.50;6135827;23;47169;-81
2021/09/19 10:24:36;;;;;;;;;15.50;14.75;;;;;25.71;46.87;100459.41;6130317;23;45255;-78
2021/09/19 10:27:01;;;;;;;;;12.75;12.00;;;;;25.80;47.20;100474.06;6186961;23;45437;-79
2021/09/19 10:29:47;;;;;;;;;13.75;12.50;;;;;25.70;47.24;100452.31;6188179;23;45380;-82
2021/09/19 10:33:04;;;;;;;;;;;;;;;;;;;;;
2021/09/19 10:36:23;;;;;;;;;;;;;;;;;;;;;
2021/09/19 10:43:10;;;;;;;;;17.75;15.75;;;;;25.62;46.01;100438.53;6118968;23;45628;-77
2021/09/19 10:46:06;;;;;;;;;17.50;14.25;;;;;25.69;45.68;100453.28;6052963;23;45435;-77
2021/09/19 10:48:34;;;;;;;;;19.50;17.00;;;;;25.70;46.00;100465.69;6124536;23;45461;-76
2021/09/19 10:51:04;;;;;;;;;16.50;16.50;;;;;25.79;45.81;100473.19;6135325;23;45144;-79
2021/09/19 10:54:28;;;;;;;;;;;;;;;;;;;;;
2021/09/19 10:57:18;;;;;;;;;18.25;16.50;;;;;25.67;45.47;100446.31;6182471;23;46110;-76
2021/09/19 11:00:39;;;;;;;;;17.25;16.25;;;;;25.87;45.50;100475.44;6160109;23;45230;-79
2021/09/19 11:03:56;;;;;;;;;;;;;;;;;;;;;
2021/09/19 11:07:06;;;;;;;;;;;;;;;;;;;;;
2021/09/19 11:09:35;;;;;;;;;15.75;15.00;;;;;25.87;45.64;100457.56;6151429;23;75811;-77
2021/09/19 11:16:08;;;;;;;;;20.25;17.25;;;;;25.84;45.29;100441.72;6097515;23;45210;-82
2021/09/19 11:19:28;;;;;;;;;;;;;;;;;;;;;
2021/09/19 11:25:16;;;;;;;;;21.25;17.75;;;;;26.00;45.02;100484.47;6033054;23;45527;-79
2021/09/19 11:27:43;;;;;;;;;16.50;16.00;;;;;26.01;44.97;100485.34;6132693;23;45209;-81
2021/09/19 11:30:34;;;;;;;;;17.50;17.50;;;;;25.91;45.16;100483.19;6185338;23;45387;-83
2021/09/19 11:33:22;;;;;;;;;;;;;;;;;;;;;
2021/09/19 11:35:47;;;;;;;;;21.50;18.75;;;;;25.95;44.60;100486.53;6161439;23;73045;-81
2021/09/19 11:38:47;;;;;;;;;;;;;;;;;;;;;
2021/09/19 11:41:13;;;;;;;;;17.50;15.50;;;;;25.96;44.25;100487.41;6182672;23;71702;-81
2021/09/19 11:43:43;;;;;;;;;18.50;14.50;;;;;25.92;44.31;100484.91;6159581;23;47887;-79
2021/09/19 11:46:12;;;;;;;;;15.75;15.00;;;;;25.87;44.75;100464.75;6161136;23;45340;-83
2021/09/19 11:48:40;;;;;;;;;18.00;16.75;;;;;25.93;44.26;100475.94;6158869;23;45233;-80
2021/09/19 11:51:06;;;;;;;;;17.50;16.00;;;;;26.09;44.89;100507.16;6159539;23;45886;-77
2021/09/19 11:53:32;;;;;;;;;17.25;17.25;;;;;26.10;44.51;100509.72;6186692;23;46159;-77
2021/09/19 11:55:57;;;;;;;;;21.50;17.00;;;;;26.11;44.38;100510.59;6185863;23;56842;-77
2021/09/19 11:58:23;;;;;;;;;18.75;14.75;;;;;26.11;44.85;100502.56;6159742;23;45234;-78
2021/09/19 12:00:52;;;;;;;;;20.00;18.25;;;;;25.95;44.56;100472.31;6191098;22;45359;-78
2021/09/19 12:03:20;;;;;;;;;29.50;24.75;;;;;26.10;44.62;100503.50;6216693;22;45174;-80
2021/09/19 12:05:56;;;;;;;;;18.25;15.25;;;;;26.02;45.07;100485.25;6216653;22;45253;-76
2021/09/19 12:08:22;;;;;;;;;17.00;17.00;;;;;26.08;44.70;100503.59;6165796;22;45271;-79
2021/09/19 12:10:52;;;;;;;;;18.75;18.00;;;;;26.00;44.52;100491.63;6191310;22;45541;-80
2021/09/19 12:13:29;;;;;;;;;17.50;16.00;;;;;25.99;44.51;100489.91;6191266;22;46081;-79
2021/09/19 12:16:19;;;;;;;;;18.25;16.75;;;;;26.08;45.03;100502.75;6165706;22;45406;-76
2021/09/19 12:18:46;;;;;;;;;15.50;14.25;;;;;26.04;44.44;100509.22;6217766;22;45202;-76
2021/09/19 12:21:15;;;;;;;;;19.50;18.50;;;;;26.08;44.49;100511.63;6218257;22;45391;-75
2021/09/19 12:23:48;;;;;;;;;20.50;18.50;;;;;26.09;44.66;100512.50;6216026;22;47126;-76
2021/09/19 12:26:15;;;;;;;;;17.25;16.00;;;;;26.07;44.59;100512.59;6215856;22;45120;-80
2021/09/19 12:29:27;;;;;;;;;;;;;;;;;;;;;
2021/09/19 12:35:32;;;;;;;;;18.25;15.25;;;;;25.97;44.62;100479.28;6198745;22;46072;-76
2021/09/19 12:38:03;;;;;;;;;21.75;20.75;;;;;25.90;44.84;100467.25;6165681;22;45340;-82
2021/09/19 12:40:33;;;;;;;;;18.50;17.75;;;;;26.03;45.07;100486.97;6190993;22;45271;-82
2021/09/19 12:43:08;;;;;;;;;21.00;20.50;;;;;26.11;44.58;100490.03;6216335;22;45367;-82
2021/09/19 12:46:32;;;;;;;;;;;;;;;;;;;;;
2021/09/19 12:57:18;;;;;;;;;;;;;;;;;;;;;
2021/09/19 12:59:49;;;;;;;;;20.25;19.50;;;;;26.03;43.59;100481.59;5890921;23;75839;-77